Time;durP1;ratioP1;P1;durP2;ratioP2;P2;SDS_P1;SDS_P2;PMS_P1;PMS_P2;Temp;Humidity;BMP_temperature;BMP_pressure;BME280_temperature;BME280_humidity;BME280_pressure;Samples;Min_cycle;Max_cycle;Signal;HPM_P1;HPM_P2
2024/02/26 00:01:27;;;;;;;3.83;1.83;;;7.20;91.80;;;;;;5023448;28;20474;-87
2024/02/26 00:03:53;;;;;;;4.80;1.43;;;7.10;91.80;;;;;;5020472;28;20014;-88
2024/02/26 00:06:19;;;;;;;5.57;2.03;;;7.20;91.90;;;;;;5023282;28;20041;-87
2024/02/26 00:08:46;;;;;;;5.77;2.27;;;7.20;91.90;;;;;;5024846;28;20052;-89
2024/02/26 00:11:12;;;;;;;4.00;1.90;;;7.10;91.90;;;;;;5026245;28;20033;-89
2024/02/26 00:13:38;;;;;;;5.30;2.30;;;7.10;91.90;;;;;;5044905;28;20029;-89
2024/02/26 00:16:04;;;;;;;4.23;2.43;;;7.00;91.80;;;;;;5026547;28;20493;-90
2024/02/26 00:18:30;;;;;;;4.33;2.33;;;7.10;91.90;;;;;;5026085;28;20085;-90
2024/02/26 00:20:55;;;;;;;5.23;2.53;;;7.10;91.90;;;;;;5024890;28;20022;-89
2024/02/26 00:23:22;;;;;;;4.47;2.10;;;7.10;91.90;;;;;;5027236;28;20021;-90
2024/02/26 00:25:48;;;;;;;5.77;2.23;;;7.10;91.90;;;;;;5044317;28;20036;-89
2024/02/26 00:28:14;;;;;;;4.53;2.40;;;7.10;92.00;;;;;;5023784;28;20026;-89
2024/02/26 00:30:39;;;;;;;3.37;1.97;;;7.10;92.00;;;;;;5023625;28;20026;-89
2024/02/26 00:33:05;;;;;;;4.30;2.20;;;7.10;92.00;;;;;;5023842;28;20035;-88
2024/02/26 00:35:31;;;;;;;3.53;2.33;;;7.00;92.00;;;;;;5024493;28;20026;-90
2024/02/26 00:37:58;;;;;;;5.33;2.23;;;7.00;92.00;;;;;;5023201;28;20021;-90
2024/02/26 00:40:24;;;;;;;4.53;2.10;;;7.00;92.10;;;;;;5023158;28;20017;-89
2024/02/26 00:42:50;;;;;;;4.33;2.07;;;7.10;92.10;;;;;;5023118;28;20025;-89
2024/02/26 00:45:16;;;;;;;3.57;2.10;;;7.10;92.20;;;;;;5021965;28;20033;-87
2024/02/26 00:47:42;;;;;;;7.27;2.37;;;7.00;92.20;;;;;;5022732;28;20022;-87
2024/02/26 00:50:09;;;;;;;4.70;2.10;;;7.10;92.30;;;;;;5022670;28;20060;-88
2024/02/26 00:52:35;;;;;;;4.27;2.17;;;7.10;92.30;;;;;;5022912;28;20034;-87
2024/02/26 00:55:03;;;;;;;7.07;2.67;;;7.10;92.30;;;;;;5040057;28;20049;-88
2024/02/26 00:57:28;;;;;;;3.67;2.33;;;7.10;92.30;;;;;;5022727;28;20033;-88
2024/02/26 00:59:56;;;;;;;5.57;2.70;;;7.10;92.30;;;;;;5022399;28;20022;-88
2024/02/26 01:02:22;;;;;;;3.53;2.10;;;7.10;92.30;;;;;;5022165;28;20117;-88
2024/02/26 01:04:48;;;;;;;5.93;2.93;;;7.10;92.30;;;;;;5019335;28;20054;-88
2024/02/26 01:07:13;;;;;;;4.80;2.57;;;7.10;92.30;;;;;;5037465;28;20029;-87
2024/02/26 01:09:39;;;;;;;4.53;2.00;;;7.10;92.40;;;;;;5023400;28;20014;-88
2024/02/26 01:12:05;;;;;;;5.03;2.33;;;7.10;92.40;;;;;;5021950;28;20624;-88
2024/02/26 01:14:31;;;;;;;5.77;2.73;;;7.10;92.40;;;;;;5022441;28;20049;-88
2024/02/26 01:16:57;;;;;;;4.10;2.17;;;7.10;92.40;;;;;;5039114;28;20029;-88
2024/02/26 01:19:22;;;;;;;4.77;2.13;;;7.10;92.40;;;;;;5022003;28;20037;-88
2024/02/26 01:21:48;;;;;;;3.67;1.83;;;7.20;92.70;;;;;;5022665;28;20022;-88
2024/02/26 01:24:15;;;;;;;6.27;2.30;;;7.20;92.40;;;;;;5023371;28;20477;-88
2024/02/26 01:26:41;;;;;;;5.97;2.10;;;7.20;92.40;;;;;;5038504;28;20033;-87
2024/02/26 01:29:07;;;;;;;4.23;1.80;;;7.20;92.40;;;;;;5023379;28;20065;-87
2024/02/26 01:31:32;;;;;;;3.97;1.60;;;7.20;92.40;;;;;;5021703;28;20490;-87
2024/02/26 01:33:58;;;;;;;4.30;1.80;;;7.30;92.40;;;;;;5021580;28;20029;-87
2024/02/26 01:36:23;;;;;;;5.00;1.83;;;7.30;92.40;;;;;;5022243;28;20053;-87
2024/02/26 01:38:49;;;;;;;5.10;1.80;;;7.30;92.40;;;;;;5022782;28;20029;-87
2024/02/26 01:41:15;;;;;;;4.50;2.07;;;7.30;92.40;;;;;;5023041;28;20018;-87
2024/02/26 01:43:40;;;;;;;5.77;2.20;;;7.30;92.40;;;;;;5021844;28;20072;-87
2024/02/26 01:46:11;;;;;;;3.97;1.97;;;7.30;92.40;;;;;;5021328;28;20076;-86
2024/02/26 01:48:37;;;;;;;4.67;2.07;;;7.30;92.40;;;;;;5022226;28;20041;-87
2024/02/26 01:51:03;;;;;;;5.17;2.07;;;7.30;92.40;;;;;;5021485;28;20077;-88
2024/02/26 01:53:30;;;;;;;4.60;1.83;;;7.20;92.40;;;;;;5038427;28;20030;-87
2024/02/26 01:55:55;;;;;;;2.97;1.37;;;7.30;92.40;;;;;;5038202;28;20112;-87
2024/02/26 01:58:21;;;;;;;3.47;1.77;;;7.30;92.50;;;;;;5021089;28;20030;-88
2024/02/26 02:00:47;;;;;;;4.97;1.70;;;7.30;92.50;;;;;;5021801;28;20109;-87
2024/02/26 02:03:12;;;;;;;4.07;2.03;;;7.30;92.50;;;;;;5020890;28;20022;-87
2024/02/26 02:05:41;;;;;;;6.43;1.90;;;7.30;92.50;;;;;;5022019;28;20050;-90
2024/02/26 02:08:11;;;;;;;3.80;1.87;;;7.20;92.50;;;;;;5022242;28;20053;-89
2024/02/26 02:10:38;;;;;;;4.50;1.60;;;7.30;92.50;;;;;;5022144;28;20022;-89
2024/02/26 02:13:03;;;;;;;3.70;1.80;;;7.40;92.50;;;;;;5021872;28;20109;-85
2024/02/26 02:15:29;;;;;;;4.73;1.93;;;7.30;92.40;;;;;;5020981;28;20465;-87
2024/02/26 02:17:55;;;;;;;3.60;1.80;;;7.30;92.40;;;;;;5020682;28;20016;-87
2024/02/26 02:20:32;;;;;;;3.93;2.00;;;7.30;92.40;;;;;;5021065;28;20021;-87
2024/02/26 02:22:58;;;;;;;6.90;2.43;;;7.30;92.40;;;;;;5021305;28;20026;-87
2024/02/26 02:25:24;;;;;;;3.50;2.07;;;7.40;92.40;;;;;;5038035;28;20036;-86
2024/02/26 02:27:51;;;;;;;3.47;1.90;;;7.40;92.40;;;;;;5020758;28;20026;-87
2024/02/26 02:30:17;;;;;;;4.03;1.77;;;7.40;92.40;;;;;;5021671;28;20057;-86
2024/02/26 02:32:43;;;;;;;5.43;2.07;;;7.40;92.40;;;;;;5020557;28;20063;-87
2024/02/26 02:35:09;;;;;;;4.37;2.50;;;7.30;92.30;;;;;;5023586;28;20029;-87
2024/02/26 02:37:35;;;;;;;5.03;2.50;;;7.30;92.20;;;;;;5023061;28;20021;-88
2024/02/26 02:40:00;;;;;;;5.13;2.67;;;7.30;92.30;;;;;;5025237;28;20021;-86
2024/02/26 02:42:26;;;;;;;5.13;2.30;;;7.30;92.20;;;;;;5022229;28;20482;-87
2024/02/26 02:44:52;;;;;;;4.77;2.43;;;7.30;92.30;;;;;;5020814;28;20025;-86
2024/02/26 02:47:17;;;;;;;5.80;2.47;;;7.30;92.20;;;;;;5020976;28;20048;-87
2024/02/26 02:49:43;;;;;;;5.03;2.37;;;7.30;92.20;;;;;;5020569;28;20049;-85
2024/02/26 02:52:09;;;;;;;4.60;2.60;;;7.30;92.20;;;;;;5020537;28;20038;-86
2024/02/26 02:54:36;;;;;;;5.17;2.30;;;7.30;92.30;;;;;;5020056;28;20056;-86
2024/02/26 02:57:03;;;;;;;4.20;2.30;;;7.30;92.30;;;;;;5020129;28;20022;-85
2024/02/26 02:59:28;;;;;;;5.63;2.80;;;7.30;92.30;;;;;;5020031;28;20052;-85
2024/02/26 03:01:54;;;;;;;6.10;2.63;;;7.20;92.30;;;;;;5020458;28;20025;-85
2024/02/26 03:04:20;;;;;;;7.07;2.60;;;7.20;92.40;;;;;;5020446;28;20401;-85
2024/02/26 03:06:45;;;;;;;5.77;2.70;;;7.20;92.30;;;;;;5019599;28;20056;-85
2024/02/26 03:09:11;;;;;;;4.97;2.50;;;7.20;92.40;;;;;;5019986;28;20057;-85
2024/02/26 03:11:37;;;;;;;4.73;2.30;;;7.20;92.40;;;;;;5019529;28;20092;-85
2024/02/26 03:14:02;;;;;;;4.60;2.50;;;7.20;92.50;;;;;;5021751;28;20502;-85
2024/02/26 03:16:28;;;;;;;6.40;2.60;;;7.20;92.50;;;;;;5019879;28;20037;-85
2024/02/26 03:18:54;;;;;;;4.73;1.80;;;7.20;92.50;;;;;;5020155;28;20014;-85
2024/02/26 03:21:19;;;;;;;3.30;1.73;;;7.20;92.80;;;;;;5019966;28;20057;-85
2024/02/26 03:23:46;;;;;;;3.63;2.00;;;7.20;92.50;;;;;;5035698;28;20114;-85
2024/02/26 03:26:14;;;;;;;5.07;2.00;;;7.20;92.50;;;;;;5020319;28;20137;-86
2024/02/26 03:28:40;;;;;;;4.37;1.90;;;7.20;92.50;;;;;;5021137;28;20033;-87
2024/02/26 03:31:06;;;;;;;4.83;2.70;;;7.20;92.40;;;;;;5019572;28;20038;-87
2024/02/26 03:33:31;;;;;;;4.60;2.47;;;7.20;92.40;;;;;;5019591;28;20042;-88
2024/02/26 03:35:57;;;;;;;4.90;2.13;;;7.20;92.40;;;;;;5021018;28;20026;-88
2024/02/26 03:38:23;;;;;;;5.20;1.57;;;7.20;92.40;;;;;;5019909;28;20029;-87
2024/02/26 03:40:48;;;;;;;4.60;2.07;;;7.20;92.50;;;;;;5020058;28;20025;-88
2024/02/26 03:43:14;;;;;;;4.23;2.10;;;7.20;92.40;;;;;;5019670;28;20462;-87
2024/02/26 03:45:40;;;;;;;4.53;2.40;;;7.20;92.40;;;;;;5035640;28;20032;-87
2024/02/26 03:48:06;;;;;;;4.70;1.80;;;7.30;92.40;;;;;;5019649;28;20056;-87
2024/02/26 03:50:32;;;;;;;4.00;1.87;;;7.20;92.40;;;;;;5018993;28;20057;-86
2024/02/26 03:52:58;;;;;;;4.83;2.23;;;7.30;92.40;;;;;;5020797;28;20014;-88
2024/02/26 03:55:24;;;;;;;3.73;2.00;;;7.30;92.40;;;;;;5022931;28;20026;-86
2024/02/26 03:57:51;;;;;;;4.90;2.43;;;7.30;92.40;;;;;;5024278;28;20025;-87
2024/02/26 04:00:17;;;;;;;6.50;2.50;;;7.30;92.40;;;;;;5023939;28;20018;-86
2024/02/26 04:02:42;;;;;;;6.30;3.20;;;7.30;92.40;;;;;;5040662;28;20499;-86
2024/02/26 04:05:11;;;;;;;4.13;2.20;;;7.20;92.40;;;;;;5023451;28;20065;-87
2024/02/26 04:07:37;;;;;;;5.57;2.80;;;7.20;92.40;;;;;;5022758;28;20030;-87
2024/02/26 04:10:04;;;;;;;4.27;2.37;;;7.20;92.50;;;;;;5020769;28;20059;-88
2024/02/26 04:12:30;;;;;;;5.23;2.87;;;7.20;92.50;;;;;;5021018;28;20038;-87
2024/02/26 04:14:56;;;;;;;4.93;2.43;;;7.20;92.50;;;;;;5019938;28;20049;-88
2024/02/26 04:17:22;;;;;;;7.13;2.93;;;7.20;92.60;;;;;;5019796;28;20386;-88
2024/02/26 04:19:47;;;;;;;5.23;2.80;;;7.20;92.60;;;;;;5018664;28;20113;-88
2024/02/26 04:22:13;;;;;;;6.23;3.60;;;7.20;92.60;;;;;;5020639;28;20021;-85
2024/02/26 04:24:38;;;;;;;5.83;2.80;;;7.20;92.70;;;;;;5018974;28;20060;-87
2024/02/26 04:27:04;;;;;;;5.43;3.20;;;7.20;92.70;;;;;;5019364;28;20032;-87
2024/02/26 04:29:30;;;;;;;5.13;3.30;;;7.20;92.70;;;;;;5018937;28;20046;-86
2024/02/26 04:31:55;;;;;;;7.13;3.63;;;7.10;92.80;;;;;;5018487;28;20398;-87
2024/02/26 04:34:21;;;;;;;7.27;3.63;;;7.20;92.90;;;;;;5019390;28;20014;-87
2024/02/26 04:36:47;;;;;;;6.27;3.53;;;7.10;92.90;;;;;;5018569;28;20025;-87
2024/02/26 04:39:13;;;;;;;6.63;3.20;;;7.10;92.90;;;;;;5020572;28;20077;-86
2024/02/26 04:41:39;;;;;;;6.87;3.50;;;7.10;93.00;;;;;;5036061;28;20022;-86
2024/02/26 04:44:05;;;;;;;6.10;3.00;;;7.10;93.00;;;;;;5039696;28;20042;-86
2024/02/26 04:46:31;;;;;;;6.47;3.10;;;7.10;93.10;;;;;;5022743;28;20500;-87
2024/02/26 04:48:56;;;;;;;7.30;3.83;;;7.10;93.10;;;;;;5022901;28;20022;-87
2024/02/26 04:51:22;;;;;;;7.10;3.47;;;7.00;93.10;;;;;;5023965;28;20073;-87
2024/02/26 04:53:48;;;;;;;6.77;4.07;;;7.10;93.30;;;;;;5022699;28;20036;-87
2024/02/26 04:56:13;;;;;;;7.87;4.57;;;7.00;93.40;;;;;;5023312;28;20037;-87
2024/02/26 04:58:39;;;;;;;6.90;3.90;;;7.00;93.40;;;;;;5023005;28;20053;-87
2024/02/26 05:01:05;;;;;;;8.20;4.53;;;7.00;93.50;;;;;;5022631;28;20093;-86
2024/02/26 05:03:31;;;;;;;6.73;3.77;;;6.90;93.60;;;;;;5022307;28;20057;-86
2024/02/26 05:05:57;;;;;;;7.73;4.30;;;6.90;93.70;;;;;;5022709;28;20044;-87
2024/02/26 05:08:24;;;;;;;7.80;4.33;;;6.90;93.90;;;;;;5022709;28;20030;-88
2024/02/26 05:10:49;;;;;;;8.17;4.00;;;6.90;93.80;;;;;;5027761;28;20029;-88
2024/02/26 05:13:17;;;;;;;9.37;5.10;;;6.90;94.10;;;;;;5024927;28;20022;-87
2024/02/26 05:15:44;;;;;;;9.13;4.77;;;6.90;94.20;;;;;;5021844;28;20044;-87
2024/02/26 05:18:10;;;;;;;5.83;3.73;;;6.90;94.20;;;;;;5022019;28;20049;-89
2024/02/26 05:20:37;;;;;;;9.43;4.57;;;6.80;94.20;;;;;;5021811;28;20025;-88
2024/02/26 05:23:03;;;;;;;7.80;4.43;;;6.90;94.40;;;;;;5022655;28;20093;-87
2024/02/26 05:25:30;;;;;;;7.10;4.23;;;6.80;94.60;;;;;;5022209;28;20030;-87
2024/02/26 05:27:55;;;;;;;9.33;4.43;;;6.80;94.70;;;;;;5021916;28;20025;-87
2024/02/26 05:30:21;;;;;;;7.93;4.73;;;6.80;94.80;;;;;;5022277;28;20022;-88
2024/02/26 05:32:47;;;;;;;9.07;5.10;;;6.80;95.10;;;;;;5021360;28;20061;-89
2024/02/26 05:35:12;;;;;;;8.40;4.30;;;6.80;95.30;;;;;;5022008;28;20030;-89
2024/02/26 05:37:38;;;;;;;8.37;4.73;;;6.80;95.40;;;;;;5022123;28;20026;-89
2024/02/26 05:40:05;;;;;;;8.20;4.70;;;6.80;95.40;;;;;;5039249;28;20029;-88
2024/02/26 05:42:31;;;;;;;7.17;4.23;;;6.70;95.60;;;;;;5021607;28;20022;-88
2024/02/26 05:44:57;;;;;;;8.47;5.07;;;6.70;95.60;;;;;;5021891;28;20029;-90
2024/02/26 05:47:23;;;;;;;9.20;5.20;;;6.70;95.80;;;;;;5022261;28;20054;-87
2024/02/26 05:49:48;;;;;;;9.80;5.20;;;6.70;96.10;;;;;;5021401;28;20029;-88
2024/02/26 05:52:14;;;;;;;8.93;4.90;;;6.70;96.30;;;;;;5033193;28;20026;-88
2024/02/26 05:54:40;;;;;;;10.93;4.93;;;6.60;96.50;;;;;;5028162;28;20036;-89
2024/02/26 05:57:06;;;;;;;8.23;4.83;;;6.60;96.60;;;;;;5041639;28;20052;-88
2024/02/26 05:59:31;;;;;;;8.87;4.50;;;6.60;96.70;;;;;;5041444;28;20057;-89
2024/02/26 06:01:57;;;;;;;9.87;4.63;;;6.60;97.10;;;;;;5041596;28;20025;-88
2024/02/26 06:04:22;;;;;;;9.67;4.77;;;6.60;97.20;;;;;;5041312;28;20087;-91
2024/02/26 06:06:49;;;;;;;7.73;4.60;;;6.60;97.50;;;;;;5040930;28;20025;-86
2024/02/26 06:09:14;;;;;;;9.20;5.30;;;6.50;97.60;;;;;;5040888;28;20013;-87
2024/02/26 06:11:40;;;;;;;7.40;4.80;;;6.50;97.60;;;;;;5040948;28;20108;-87
2024/02/26 06:14:06;;;;;;;7.93;4.53;;;6.50;97.80;;;;;;5040770;28;20024;-86
2024/02/26 06:16:32;;;;;;;9.23;4.17;;;6.50;98.10;;;;;;5028540;28;20052;-87
2024/02/26 06:19:00;;;;;;;9.47;4.13;;;6.50;98.20;;;;;;5020593;28;20033;-87
2024/02/26 06:21:26;;;;;;;9.17;4.47;;;6.50;98.20;;;;;;5020087;28;20018;-85
2024/02/26 06:23:51;;;;;;;7.93;4.50;;;6.50;98.20;;;;;;5020383;28;20029;-87
2024/02/26 06:26:17;;;;;;;8.13;4.27;;;6.50;98.20;;;;;;5020599;28;20105;-86
2024/02/26 06:28:43;;;;;;;7.47;4.77;;;6.60;98.30;;;;;;5019920;28;20036;-83
2024/02/26 06:31:08;;;;;;;8.17;4.67;;;6.60;98.50;;;;;;5020199;28;20030;-82
2024/02/26 06:33:34;;;;;;;7.17;4.20;;;6.60;98.60;;;;;;5036734;28;20018;-83
2024/02/26 06:36:00;;;;;;;7.47;4.00;;;6.50;98.60;;;;;;5022028;28;20018;-83
2024/02/26 06:38:25;;;;;;;7.57;4.00;;;6.60;98.60;;;;;;5041898;28;20447;-83
2024/02/26 06:40:51;;;;;;;11.20;4.57;;;6.60;98.80;;;;;;5041409;28;20027;-83
2024/02/26 06:43:16;;;;;;;7.60;4.60;;;6.60;98.80;;;;;;5042313;28;20021;-83
2024/02/26 06:45:42;;;;;;;7.13;4.23;;;6.60;99.20;;;;;;5039536;28;20068;-83
2024/02/26 06:48:08;;;;;;;8.60;4.80;;;6.60;99.10;;;;;;5041544;28;20021;-83
2024/02/26 06:50:34;;;;;;;7.53;4.27;;;6.60;99.20;;;;;;5040961;28;20030;-83
2024/02/26 06:52:59;;;;;;;8.30;4.30;;;6.60;99.20;;;;;;5041447;28;20080;-83
2024/02/26 06:55:25;;;;;;;7.93;4.43;;;6.60;99.40;;;;;;5041344;28;20029;-82
2024/02/26 06:57:50;;;;;;;7.00;4.40;;;6.60;99.30;;;;;;5039407;28;20025;-83
2024/02/26 07:00:17;;;;;;;7.10;4.33;;;6.60;99.40;;;;;;5041479;28;20124;-83
2024/02/26 07:02:43;;;;;;;7.47;4.03;;;6.60;99.50;;;;;;5038469;28;20127;-82
2024/02/26 07:05:09;;;;;;;7.53;4.43;;;6.60;99.60;;;;;;5038969;28;20528;-83
2024/02/26 07:07:35;;;;;;;10.77;5.67;;;6.60;99.70;;;;;;5039502;28;20029;-83
2024/02/26 07:10:03;;;;;;;8.97;4.80;;;6.60;99.90;;;;;;5040554;28;20029;-84
2024/02/26 07:12:30;;;;;;;10.20;5.50;;;6.60;99.90;;;;;;5041941;28;20073;-84
2024/02/26 07:14:55;;;;;;;9.20;5.37;;;6.60;99.90;;;;;;5039606;28;20036;-84
2024/02/26 07:17:21;;;;;;;9.63;5.53;;;6.60;99.90;;;;;;5040411;28;20116;-86
2024/02/26 07:19:46;;;;;;;12.40;5.77;;;6.60;99.90;;;;;;5039681;28;20026;-86
2024/02/26 07:22:13;;;;;;;10.17;6.13;;;6.60;99.90;;;;;;5035700;28;20028;-86
2024/02/26 07:24:39;;;;;;;10.93;6.57;;;6.60;99.90;;;;;;5038236;28;20026;-86
2024/02/26 07:27:05;;;;;;;11.50;6.90;;;6.50;99.90;;;;;;5040102;28;20052;-81
2024/02/26 07:29:31;;;;;;;11.47;7.47;;;6.50;99.90;;;;;;5038804;28;20048;-81
2024/02/26 07:31:56;;;;;;;11.53;6.73;;;6.50;99.90;;;;;;5038615;28;20037;-81
2024/02/26 07:34:27;;;;;;;12.90;7.23;;;6.50;99.90;;;;;;5039755;28;20059;-80
2024/02/26 07:36:53;;;;;;;12.17;7.70;;;6.50;99.90;;;;;;5038648;28;20022;-81
2024/02/26 07:39:19;;;;;;;11.23;6.37;;;6.50;99.90;;;;;;5039363;28;20029;-81
2024/02/26 07:41:48;;;;;;;13.00;7.20;;;6.40;99.90;;;;;;5039151;28;20093;-81
2024/02/26 07:44:14;;;;;;;12.80;7.67;;;6.40;99.90;;;;;;5038996;28;20029;-81
2024/02/26 07:46:39;;;;;;;12.67;8.03;;;6.50;99.90;;;;;;5039151;28;20021;-81
2024/02/26 07:49:05;;;;;;;14.63;8.27;;;6.40;99.90;;;;;;5038448;28;20075;-82
2024/02/26 07:51:31;;;;;;;14.80;9.23;;;6.40;99.90;;;;;;5038205;28;20029;-81
2024/02/26 07:53:56;;;;;;;12.90;7.67;;;6.40;99.90;;;;;;5038377;28;20059;-81
2024/02/26 07:56:22;;;;;;;14.97;8.43;;;6.50;99.90;;;;;;5037991;28;20018;-81
2024/02/26 07:58:48;;;;;;;15.60;9.00;;;6.50;99.90;;;;;;5037963;28;20032;-81
2024/02/26 08:01:14;;;;;;;16.47;9.63;;;6.50;99.90;;;;;;5037933;28;20082;-81
2024/02/26 08:03:40;;;;;;;15.47;9.93;;;6.50;99.90;;;;;;5038105;28;20025;-81
2024/02/26 08:06:07;;;;;;;16.27;9.97;;;6.40;99.90;;;;;;5038072;28;20033;-81
2024/02/26 08:08:33;;;;;;;16.17;10.13;;;6.50;99.90;;;;;;5038437;28;20096;-81
2024/02/26 08:10:59;;;;;;;14.37;8.77;;;6.50;99.90;;;;;;5037699;28;20462;-82
2024/02/26 08:13:26;;;;;;;16.30;9.43;;;6.50;99.90;;;;;;5038419;28;20389;-82
2024/02/26 08:15:51;;;;;;;20.20;11.23;;;6.50;99.90;;;;;;5037882;28;20024;-82
2024/02/26 08:18:17;;;;;;;18.97;11.10;;;6.50;99.90;;;;;;5041635;28;20026;-81
2024/02/26 08:20:43;;;;;;;16.27;10.67;;;6.50;99.90;;;;;;5042215;28;20022;-81
2024/02/26 08:23:09;;;;;;;16.40;10.23;;;6.50;99.90;;;;;;5042218;28;20021;-81
2024/02/26 08:25:35;;;;;;;17.53;10.13;;;6.50;99.90;;;;;;5041840;28;20040;-81
2024/02/26 08:28:00;;;;;;;17.50;10.80;;;6.50;99.90;;;;;;5037637;28;20092;-81
2024/02/26 08:30:26;;;;;;;17.40;10.00;;;6.50;99.90;;;;;;5039820;28;20032;-81
2024/02/26 08:32:52;;;;;;;18.63;10.80;;;6.50;99.90;;;;;;5041143;28;20025;-81
2024/02/26 08:35:18;;;;;;;20.33;11.57;;;6.50;99.90;;;;;;5041697;28;20595;-81
2024/02/26 08:37:47;;;;;;;19.63;11.10;;;6.50;99.90;;;;;;5039843;28;20112;-81
2024/02/26 08:40:14;;;;;;;18.83;10.57;;;6.50;99.90;;;;;;5033314;28;20373;-82
2024/02/26 08:42:39;;;;;;;20.73;11.53;;;6.50;99.90;;;;;;5041720;28;20508;-81
2024/02/26 08:45:06;;;;;;;16.43;9.73;;;6.50;99.90;;;;;;5041764;28;20021;-81
2024/02/26 08:47:32;;;;;;;18.47;10.70;;;6.50;99.90;;;;;;5042548;28;20044;-81
2024/02/26 08:49:58;;;;;;;19.63;11.60;;;6.50;99.90;;;;;;5041948;28;20030;-81
2024/02/26 08:52:24;;;;;;;19.50;11.67;;;6.50;99.90;;;;;;5042314;28;20549;-81
2024/02/26 08:54:50;;;;;;;21.43;12.90;;;6.60;99.90;;;;;;5041405;28;20037;-82
2024/02/26 08:57:16;;;;;;;19.73;11.17;;;6.50;99.90;;;;;;5042095;28;20022;-82
2024/02/26 08:59:41;;;;;;;20.53;12.17;;;6.50;99.90;;;;;;5042344;28;20056;-81
2024/02/26 09:02:09;;;;;;;18.70;11.23;;;6.50;99.90;;;;;;5042312;28;20089;-82
2024/02/26 09:04:35;;;;;;;22.03;12.27;;;6.60;99.90;;;;;;5042465;28;20049;-82
2024/02/26 09:07:01;;;;;;;17.97;10.93;;;6.60;99.90;;;;;;5043351;28;20033;-81
2024/02/26 09:09:27;;;;;;;23.60;13.00;;;6.60;99.90;;;;;;5042246;28;20017;-82
2024/02/26 09:11:54;;;;;;;24.23;13.33;;;6.60;99.90;;;;;;5041663;28;20105;-82
2024/02/26 09:14:21;;;;;;;20.47;12.13;;;6.60;99.90;;;;;;5041964;28;20028;-82
2024/02/26 09:16:48;;;;;;;22.20;12.63;;;6.60;99.90;;;;;;5041392;28;20171;-82
2024/02/26 09:19:17;;;;;;;22.17;12.83;;;6.60;99.90;;;;;;5041197;28;20021;-82
2024/02/26 09:21:44;;;;;;;22.77;11.67;;;6.60;99.90;;;;;;5041654;28;20026;-82
2024/02/26 09:24:10;;;;;;;23.63;12.10;;;6.70;99.90;;;;;;5040938;28;20555;-82
2024/02/26 09:26:39;;;;;;;23.60;12.17;;;6.70;99.90;;;;;;5041356;28;20028;-82
2024/02/26 09:29:05;;;;;;;21.93;12.13;;;6.70;99.90;;;;;;5038038;28;20116;-81
2024/02/26 09:31:31;;;;;;;21.97;12.70;;;6.70;99.90;;;;;;5041775;28;20400;-81
2024/02/26 09:33:57;;;;;;;20.23;11.83;;;6.80;99.90;;;;;;5041727;28;20033;-80
2024/02/26 09:36:22;;;;;;;23.37;11.97;;;6.80;99.90;;;;;;5042992;28;20201;-80
2024/02/26 09:38:48;;;;;;;22.13;11.97;;;6.80;99.90;;;;;;5041937;28;20111;-81
2024/02/26 09:41:17;;;;;;;22.27;12.00;;;6.80;99.90;;;;;;5041309;28;20354;-81
2024/02/26 09:43:48;;;;;;;21.77;12.47;;;6.80;99.90;;;;;;5042895;28;20033;-80
2024/02/26 09:46:15;;;;;;;22.90;12.57;;;6.90;99.90;;;;;;5038099;28;20032;-81
2024/02/26 09:48:44;;;;;;;20.83;11.07;;;6.90;99.90;;;;;;5041760;28;20565;-81
2024/02/26 09:51:11;;;;;;;20.10;11.27;;;6.90;99.90;;;;;;5041296;28;20049;-81
2024/02/26 09:53:42;;;;;;;21.00;11.67;;;6.90;99.90;;;;;;5040837;28;20037;-81
2024/02/26 09:56:08;;;;;;;18.90;10.93;;;6.90;99.90;;;;;;5041690;28;20036;-80
2024/02/26 09:58:35;;;;;;;17.83;10.30;;;6.90;99.90;;;;;;5041062;28;20017;-81
2024/02/26 10:01:04;;;;;;;20.70;10.27;;;6.90;99.90;;;;;;5041090;28;20041;-82
2024/02/26 10:03:57;;;;;;;20.70;11.43;;;6.90;99.90;;;;;;5041023;28;20556;-80
2024/02/26 10:06:26;;;;;;;16.33;9.47;;;6.90;99.90;;;;;;5039856;28;20435;-81
2024/02/26 10:08:53;;;;;;;20.20;11.07;;;6.90;99.90;;;;;;5041561;28;20116;-81
2024/02/26 10:11:19;;;;;;;20.73;11.73;;;6.90;99.90;;;;;;5040247;28;20060;-81
2024/02/26 10:13:44;;;;;;;20.03;10.73;;;6.80;99.90;;;;;;5041218;28;20390;-81
2024/02/26 10:16:10;;;;;;;17.97;10.27;;;6.90;99.90;;;;;;5040858;28;20026;-81
2024/02/26 10:18:49;;;;;;;18.67;10.20;;;6.90;99.90;;;;;;5041114;28;20018;-81
2024/02/26 10:21:22;;;;;;;18.63;9.93;;;6.90;99.90;;;;;;5039991;28;20036;-81
2024/02/26 10:23:48;;;;;;;20.27;10.53;;;6.90;99.90;;;;;;5037226;28;20029;-81
2024/02/26 10:26:15;;;;;;;22.13;10.70;;;6.90;99.90;;;;;;5039339;28;20029;-81
2024/02/26 10:28:45;;;;;;;16.83;10.47;;;6.90;99.90;;;;;;5037500;28;20528;-82
2024/02/26 10:31:13;;;;;;;16.77;9.90;;;6.90;99.90;;;;;;5039262;28;20106;-81
2024/02/26 10:33:39;;;;;;;16.47;10.47;;;6.90;99.90;;;;;;5040254;28;20030;-82
2024/02/26 10:36:07;;;;;;;15.73;9.33;;;6.80;99.90;;;;;;5036682;28;20026;-82
2024/02/26 10:38:35;;;;;;;16.90;9.70;;;6.90;99.90;;;;;;5038435;28;20018;-81
2024/02/26 10:41:03;;;;;;;16.53;9.30;;;6.90;99.90;;;;;;5038416;28;20033;-82
2024/02/26 10:43:29;;;;;;;18.17;10.00;;;6.90;99.90;;;;;;5039860;28;20017;-82
2024/02/26 10:45:58;;;;;;;16.93;9.53;;;6.90;99.90;;;;;;5038456;28;20021;-81
2024/02/26 10:48:24;;;;;;;15.10;9.30;;;6.90;99.90;;;;;;5040941;28;20068;-82
2024/02/26 10:50:50;;;;;;;15.30;9.17;;;7.00;99.90;;;;;;5040400;28;20021;-82
2024/02/26 10:53:23;;;;;;;15.40;9.00;;;7.00;99.90;;;;;;5038902;28;20024;-82
2024/02/26 10:55:54;;;;;;;16.83;9.63;;;7.00;99.90;;;;;;5040164;28;20021;-81
2024/02/26 10:58:22;;;;;;;17.63;9.90;;;7.00;99.90;;;;;;5038989;28;20017;-82
2024/02/26 11:00:50;;;;;;;15.77;10.00;;;7.00;99.90;;;;;;5039392;28;20029;-82
2024/02/26 11:03:19;;;;;;;14.90;8.40;;;7.10;99.90;;;;;;5038772;28;20033;-82
2024/02/26 11:05:48;;;;;;;17.00;9.83;;;7.10;99.90;;;;;;5039548;28;20053;-82
2024/02/26 11:08:14;;;;;;;18.27;9.90;;;7.10;99.90;;;;;;5039622;28;20017;-82
2024/02/26 11:10:42;;;;;;;16.33;9.90;;;7.10;99.90;;;;;;5039516;28;20025;-82
2024/02/26 11:13:10;;;;;;;16.90;8.70;;;7.10;99.90;;;;;;5040006;28;20029;-81
2024/02/26 11:15:36;;;;;;;20.90;10.83;;;7.10;99.90;;;;;;5039159;28;20061;-82
2024/02/26 11:18:03;;;;;;;17.97;9.50;;;7.10;99.90;;;;;;5039278;28;20026;-82
2024/02/26 11:20:31;;;;;;;18.53;11.00;;;7.10;99.90;;;;;;5040023;28;20099;-82
2024/02/26 11:22:56;;;;;;;15.77;9.30;;;7.10;99.90;;;;;;5039448;28;20053;-82
2024/02/26 11:25:23;;;;;;;16.40;9.87;;;7.10;99.90;;;;;;5039540;28;20022;-82
2024/02/26 11:27:54;;;;;;;16.67;10.43;;;7.10;99.90;;;;;;5039128;28;20021;-82
2024/02/26 11:30:22;;;;;;;17.00;10.50;;;7.10;99.90;;;;;;5041197;28;20197;-82
2024/02/26 11:32:48;;;;;;;16.27;9.87;;;7.00;99.90;;;;;;5038642;28;20036;-81
2024/02/26 11:35:16;;;;;;;17.40;10.03;;;7.00;99.90;;;;;;5038739;28;20021;-82
2024/02/26 11:37:54;;;;;;;18.87;11.20;;;7.10;99.90;;;;;;5038536;28;20025;-82
2024/02/26 11:40:20;;;;;;;18.07;10.17;;;7.10;99.90;;;;;;5039136;28;20561;-82
2024/02/26 11:42:48;;;;;;;16.87;9.63;;;7.00;99.90;;;;;;5040503;28;20056;-82
2024/02/26 11:45:38;;;;;;;17.07;10.63;;;7.10;99.90;;;;;;5038640;28;20044;-82
2024/02/26 11:48:14;;;;;;;17.17;9.53;;;7.10;99.90;;;;;;5038951;28;20036;-82
2024/02/26 11:50:47;;;;;;;16.00;10.17;;;7.00;99.90;;;;;;5038634;28;20021;-81
2024/02/26 11:53:30;;;;;;;16.95;9.80;;;7.10;99.90;;;;;;5038480;28;20101;-82
2024/02/26 11:56:19;;;;;;;17.30;9.07;;;7.10;99.90;;;;;;5038696;28;20032;-81
2024/02/26 11:58:45;;;;;;;17.23;9.87;;;7.10;99.90;;;;;;5036972;28;20095;-82
2024/02/26 12:01:42;;;;;;;15.80;9.83;;;7.10;99.90;;;;;;5037972;28;20021;-82
2024/02/26 12:04:14;;;;;;;15.23;9.10;;;7.10;99.90;;;;;;5039505;28;20072;-82
2024/02/26 12:06:46;;;;;;;13.30;8.10;;;7.10;99.90;;;;;;5021785;28;20025;-81
2024/02/26 12:09:13;;;;;;;12.87;7.83;;;7.10;99.90;;;;;;5022176;28;20030;-82
2024/02/26 12:11:39;;;;;;;13.07;7.90;;;7.20;99.90;;;;;;5022136;28;20048;-82
2024/02/26 12:14:09;;;;;;;14.37;7.97;;;7.20;99.90;;;;;;5040353;28;20581;-82
2024/02/26 12:16:39;;;;;;;13.33;8.23;;;7.20;99.90;;;;;;5022398;28;20033;-81
2024/02/26 12:19:07;;;;;;;13.63;7.60;;;7.20;99.90;;;;;;5022073;28;20060;-81
2024/02/26 12:21:37;;;;;;;13.03;7.83;;;7.20;99.90;;;;;;5021805;28;20036;-81
2024/02/26 12:24:14;;;;;;;13.83;8.50;;;7.20;99.90;;;;;;5030657;28;20028;-81
2024/02/26 12:26:40;;;;;;;15.83;7.70;;;7.20;99.90;;;;;;5037510;28;20017;-82
2024/02/26 12:29:06;;;;;;;15.07;7.13;;;7.20;99.90;;;;;;5040864;28;20017;-82
2024/02/26 12:31:32;;;;;;;11.93;7.17;;;7.20;99.90;;;;;;5058412;28;20047;-82
2024/02/26 12:34:02;;;;;;;13.60;7.20;;;7.20;99.90;;;;;;5041032;28;20017;-81
2024/02/26 12:36:27;;;;;;;14.17;7.77;;;7.30;99.90;;;;;;5041695;28;20028;-81
2024/02/26 12:38:53;;;;;;;12.80;6.87;;;7.30;99.90;;;;;;5041545;28;20025;-81
2024/02/26 12:41:20;;;;;;;11.03;6.53;;;7.30;99.90;;;;;;5059346;28;20214;-81
2024/02/26 12:43:46;;;;;;;13.07;6.70;;;7.30;99.90;;;;;;5041603;28;20048;-82
2024/02/26 12:46:13;;;;;;;10.60;6.27;;;7.40;99.90;;;;;;5041641;28;20029;-82
2024/02/26 12:48:39;;;;;;;11.70;6.43;;;7.30;99.90;;;;;;5041770;28;20063;-81